createdAt,value
2019-04-07T00:00:33.746Z,100.00
2019-04-07T00:03:02.832Z,97.97
2019-04-07T00:05:32.219Z,109.72
2019-04-07T00:08:00.995Z,114.75
2019-04-07T00:10:30.381Z,101.55
2019-04-07T00:12:59.555Z,114.17
2019-04-07T00:15:28.369Z,106.40
2019-04-07T00:17:57.040Z,118.72
2019-04-07T00:20:25.699Z,114.10
2019-04-07T00:22:55.128Z,115.85
2019-04-07T00:25:23.926Z,122.92
2019-04-07T00:27:52.589Z,112.30
2019-04-07T00:30:21.245Z,99.40
2019-04-07T00:32:50.283Z,117.35
2019-04-07T00:35:26.575Z,97.02
2019-04-07T00:37:49.728Z,123.40
2019-04-07T00:40:18.607Z,97.82
2019-04-07T00:42:47.257Z,101.35
2019-04-07T00:45:16.562Z,114.28
2019-04-07T00:47:46.142Z,99.22
2019-04-07T00:50:16.159Z,93.95
2019-04-07T00:52:45.343Z,106.80
2019-04-07T00:55:14.223Z,114.88
2019-04-07T00:57:43.055Z,97.95
2019-04-07T01:00:17.075Z,103.45
2019-04-07T01:02:45.647Z,118.28
2019-04-07T01:05:14.784Z,111.88
2019-04-07T01:07:44.043Z,111.95
2019-04-07T01:10:12.877Z,105.63
2019-04-07T01:12:41.514Z,117.65
2019-04-07T01:15:10.905Z,110.08
2019-04-07T01:17:39.730Z,99.42
2019-04-07T01:20:10.612Z,119.08
2019-04-07T01:22:39.820Z,102.22
2019-04-07T01:25:08.979Z,96.78
2019-04-07T01:27:37.654Z,100.07
2019-04-07T01:30:07.182Z,106.97
2019-04-07T01:32:35.953Z,100.53
2019-04-07T01:35:05.803Z,102.38
2019-04-07T01:37:35.223Z,98.35
2019-04-07T01:40:04.532Z,108.07
2019-04-07T01:42:39.796Z,117.87
2019-04-07T01:45:34.386Z,101.18
2019-04-07T01:48:09.560Z,107.32
2019-04-07T01:50:55.499Z,112.65
2019-04-07T01:53:44.361Z,105.43
2019-04-07T01:56:27.510Z,105.03
2019-04-07T01:59:14.467Z,100.25
2019-04-07T02:02:02.365Z,101.53
2019-04-07T02:04:40.769Z,109.67
2019-04-07T02:07:25.161Z,87.92
2019-04-07T02:10:12.082Z,91.60
2019-04-07T02:13:09.820Z,114.85
2019-04-07T02:16:10.324Z,115.85
2019-04-07T02:19:06.252Z,105.35
2019-04-07T02:21:47.038Z,122.47
2019-04-07T02:24:20.452Z,113.60
2019-04-07T02:26:56.109Z,117.67
2019-04-07T02:29:35.816Z,102.82
2019-04-07T02:32:11.326Z,101.15
2019-04-07T02:34:49.106Z,92.70
2019-04-07T02:37:28.120Z,89.55
2019-04-07T02:40:05.006Z,91.17
2019-04-07T02:42:59.394Z,100.85
2019-04-07T02:45:38.618Z,108.32
2019-04-07T02:48:13.873Z,99.83
2019-04-07T02:51:08.034Z,105.20
2019-04-07T02:53:51.108Z,113.42
2019-04-07T02:56:32.608Z,124.18
2019-04-07T02:59:20.549Z,96.25
2019-04-07T03:02:00.746Z,111.75
2019-04-07T03:04:44.297Z,92.53
2019-04-07T03:07:25.121Z,89.52
2019-04-07T03:10:18.844Z,97.75
2019-04-07T03:15:55.325Z,96.72
2019-04-07T03:18:58.192Z,92.47
2019-04-07T03:21:46.141Z,96.20
2019-04-07T03:24:33.637Z,107.40
2019-04-07T03:27:11.265Z,97.62
2019-04-07T03:30:01.150Z,119.97
2019-04-07T03:33:07.819Z,109.65
2019-04-07T03:35:41.139Z,99.92
2019-04-07T03:38:27.425Z,126.47
2019-04-07T03:41:13.865Z,94.55
2019-04-07T03:43:51.063Z,116.03
2019-04-07T03:46:25.312Z,96.50
2019-04-07T03:49:07.144Z,97.15
2019-04-07T03:51:51.492Z,114.50
2019-04-07T03:54:46.488Z,99.37
2019-04-07T03:57:24.133Z,130.47
2019-04-07T04:00:07.305Z,120.42
2019-04-07T04:02:49.391Z,104.72
2019-04-07T04:05:46.287Z,103.27
2019-04-07T04:08:24.495Z,91.97
2019-04-07T04:11:00.060Z,110.42
2019-04-07T04:13:35.777Z,123.55
2019-04-07T04:16:14.557Z,117.95
2019-04-07T04:18:44.626Z,127.22
2019-04-07T04:21:13.622Z,149.87
2019-04-07T04:23:43.575Z,113.92
2019-04-07T04:26:12.990Z,135.63
2019-04-07T04:28:42.003Z,107.32
2019-04-07T04:31:11.613Z,101.15
2019-04-07T04:33:40.592Z,98.90
2019-04-07T04:36:09.892Z,98.17
2019-04-07T04:38:38.626Z,88.60
2019-04-07T04:41:07.220Z,104.85
2019-04-07T04:43:36.085Z,110.55
2019-04-07T04:46:08.311Z,113.03
2019-04-07T04:48:35.312Z,126.58
2019-04-07T04:51:03.973Z,132.97
2019-04-07T04:53:32.622Z,111.75
2019-04-07T04:56:01.319Z,105.87
2019-04-07T04:58:30.280Z,118.20
2019-04-07T05:00:59.059Z,106.37
2019-04-07T05:03:27.694Z,121.05
2019-04-07T05:05:56.448Z,112.97
2019-04-07T05:08:25.858Z,117.75
2019-04-07T05:10:54.546Z,143.93
2019-04-07T05:13:23.228Z,127.82
2019-04-07T05:15:51.881Z,118.82
2019-04-07T05:18:21.098Z,136.75
2019-04-07T05:20:49.976Z,146.35
2019-04-07T05:23:18.621Z,126.53
2019-04-07T05:25:47.310Z,130.65
2019-04-07T05:28:16.600Z,136.47
2019-04-07T05:30:45.668Z,124.92
2019-04-07T05:33:14.348Z,128.78
2019-04-07T05:35:43.015Z,134.50
2019-04-07T05:38:11.664Z,136.32
2019-04-07T05:40:40.950Z,141.77
2019-04-07T05:43:09.718Z,139.03
2019-04-07T05:45:38.776Z,125.85
2019-04-07T05:48:08.261Z,105.67
2019-04-07T05:50:36.928Z,123.25
2019-04-07T05:53:06.839Z,112.92
2019-04-07T05:55:36.006Z,106.32
2019-04-07T05:58:07.197Z,112.68
2019-04-07T06:00:35.130Z,105.65
2019-04-07T06:03:06.543Z,99.55
2019-04-07T06:05:34.495Z,107.70
2019-04-07T06:08:20.886Z,96.50
2019-04-07T06:10:33.720Z,100.82
2019-04-07T06:13:03.072Z,108.47
2019-04-07T06:15:32.446Z,83.85
2019-04-07T06:18:01.706Z,83.67
2019-04-07T06:20:31.325Z,85.17
2019-04-07T06:23:00.375Z,74.45
2019-04-07T06:25:33.251Z,86.90
2019-04-07T06:27:59.439Z,86.15
2019-04-07T06:30:31.866Z,90.20
2019-04-07T06:32:58.831Z,92.57
2019-04-07T06:35:28.149Z,88.92
2019-04-07T06:37:58.090Z,89.40
2019-04-07T06:40:27.339Z,86.70
2019-04-07T06:42:56.773Z,87.88
2019-04-07T06:45:30.571Z,71.10
2019-04-07T06:48:02.555Z,79.62
2019-04-07T06:50:58.377Z,62.58
2019-04-07T06:53:34.960Z,68.80
2019-04-07T06:56:15.498Z,59.77
2019-04-07T06:58:56.755Z,63.08
2019-04-07T07:01:47.611Z,53.80
2019-04-07T07:04:47.565Z,57.20
2019-04-07T07:07:35.732Z,63.20
2019-04-07T07:10:32.600Z,49.63
2019-04-07T07:13:28.633Z,46.83
2019-04-07T07:15:58.665Z,52.15
2019-04-07T07:18:38.376Z,47.53
2019-04-07T07:21:25.141Z,40.83
2019-04-07T07:23:53.982Z,42.78
2019-04-07T07:26:23.344Z,40.15
2019-04-07T07:28:52.178Z,42.55
2019-04-07T07:31:25.249Z,42.05
2019-04-07T07:33:51.503Z,37.88
2019-04-07T07:36:22.453Z,38.30
2019-04-07T07:38:59.073Z,38.45
2019-04-07T07:41:23.043Z,40.52
2019-04-07T07:43:51.483Z,36.95
2019-04-07T07:46:22.408Z,38.15
2019-04-07T07:48:51.128Z,42.75
2019-04-07T07:51:20.299Z,37.93
2019-04-07T07:53:48.963Z,35.00
2019-04-07T07:56:17.647Z,35.68
2019-04-07T07:58:47.202Z,36.68
2019-04-07T08:01:17.009Z,36.23
2019-04-07T08:03:46.930Z,36.17
2019-04-07T08:06:16.129Z,40.17
2019-04-07T08:08:46.868Z,34.53
2019-04-07T08:11:16.681Z,34.92
2019-04-07T08:13:46.153Z,30.77
2019-04-07T08:16:16.352Z,31.95
2019-04-07T08:18:46.407Z,30.23
2019-04-07T08:21:17.638Z,33.28
2019-04-07T08:23:45.898Z,30.52
2019-04-07T08:26:14.733Z,32.15
2019-04-07T08:28:43.923Z,23.83
2019-04-07T08:31:13.277Z,26.12
2019-04-07T08:33:42.178Z,24.18
2019-04-07T08:36:12.993Z,23.18
2019-04-07T08:38:41.299Z,22.62
2019-04-07T08:41:11.555Z,22.35
2019-04-07T08:43:40.919Z,21.90
2019-04-07T08:46:09.947Z,22.87
2019-04-07T08:48:38.946Z,22.77
2019-04-07T08:51:08.499Z,21.48
2019-04-07T08:53:37.785Z,23.22
2019-04-07T08:56:08.732Z,21.85
2019-04-07T08:58:38.871Z,21.62
2019-04-07T09:01:07.496Z,21.50
2019-04-07T09:03:36.174Z,21.65
2019-04-07T09:06:05.029Z,23.50
2019-04-07T09:08:36.109Z,22.77
2019-04-07T09:11:08.998Z,22.80
2019-04-07T09:13:38.483Z,22.98
2019-04-07T09:16:25.056Z,23.45
2019-04-07T09:19:09.171Z,21.93
2019-04-07T09:21:52.847Z,22.32
2019-04-07T09:24:41.572Z,21.62
2019-04-07T09:27:22.999Z,24.00
2019-04-07T09:30:00.026Z,21.65
2019-04-07T09:32:39.556Z,22.98
2019-04-07T09:35:26.795Z,25.00
2019-04-07T09:38:12.648Z,26.35
2019-04-07T09:41:07.242Z,21.68
2019-04-07T09:44:01.161Z,23.55
2019-04-07T09:46:49.970Z,24.37
2019-04-07T09:49:35.340Z,24.98
2019-04-07T09:52:14.073Z,26.52
2019-04-07T09:54:53.800Z,25.55
2019-04-07T09:57:29.088Z,24.57
2019-04-07T10:00:23.937Z,25.88
2019-04-07T10:03:13.597Z,26.50
2019-04-07T10:05:58.884Z,26.52
2019-04-07T10:08:53.301Z,26.02
2019-04-07T10:11:44.352Z,27.27
2019-04-07T10:14:33.255Z,26.00
2019-04-07T10:17:39.477Z,26.20
2019-04-07T10:20:30.216Z,27.17
2019-04-07T10:23:20.829Z,27.73
2019-04-07T10:26:14.531Z,27.50
2019-04-07T10:29:02.821Z,27.82
2019-04-07T10:31:46.370Z,27.20
2019-04-07T10:34:37.485Z,28.12
2019-04-07T10:37:41.472Z,28.40
2019-04-07T10:40:34.578Z,28.50
2019-04-07T10:45:57.124Z,28.67
2019-04-07T10:48:32.096Z,28.55
2019-04-07T10:51:19.831Z,27.87
2019-04-07T10:54:11.048Z,27.60
2019-04-07T10:56:46.190Z,27.05
2019-04-07T10:59:21.118Z,30.52
2019-04-07T11:02:08.268Z,30.70
2019-04-07T11:05:08.507Z,30.70
2019-04-07T11:07:56.834Z,30.30
2019-04-07T11:10:44.104Z,31.00
2019-04-07T11:13:30.940Z,29.32
2019-04-07T11:16:18.618Z,30.92
2019-04-07T11:19:12.969Z,31.85
2019-04-07T11:21:59.692Z,31.95
2019-04-07T11:24:46.955Z,34.63
2019-04-07T11:27:35.395Z,34.60
2019-04-07T11:30:09.994Z,33.13
2019-04-07T11:33:07.187Z,32.55
2019-04-07T11:35:40.224Z,33.33
2019-04-07T11:38:27.632Z,33.20
2019-04-07T11:41:14.314Z,31.73
2019-04-07T11:43:47.988Z,34.55
2019-04-07T11:46:36.542Z,33.80
2019-04-07T11:49:14.423Z,36.20
2019-04-07T11:51:48.949Z,34.95
2019-04-07T11:54:22.030Z,36.15
2019-04-07T11:56:59.019Z,34.73
2019-04-07T11:59:45.933Z,32.98
2019-04-07T12:02:26.356Z,33.02
2019-04-07T12:05:13.102Z,34.20
2019-04-07T12:07:59.912Z,31.30
2019-04-07T12:10:41.229Z,32.65
2019-04-07T12:13:27.617Z,33.00
2019-04-07T12:16:14.554Z,30.55
2019-04-07T12:19:01.521Z,27.07
2019-04-07T12:21:38.227Z,27.73
2019-04-07T12:24:25.924Z,26.37
2019-04-07T12:27:13.580Z,26.00
2019-04-07T12:30:05.495Z,26.33
2019-04-07T12:32:58.430Z,27.55
2019-04-07T12:35:39.056Z,32.08
2019-04-07T12:38:27.435Z,28.15
2019-04-07T12:41:14.871Z,24.70
2019-04-07T12:43:50.435Z,28.92
2019-04-07T12:46:28.986Z,26.68
2019-04-07T12:49:17.192Z,24.55
2019-04-07T12:51:59.028Z,22.85
2019-04-07T12:54:43.672Z,28.12
2019-04-07T12:57:36.736Z,21.25
2019-04-07T13:00:19.180Z,23.85
2019-04-07T13:03:15.597Z,21.55
2019-04-07T13:05:56.161Z,22.10
2019-04-07T13:08:51.958Z,22.40
2019-04-07T13:11:45.025Z,22.25
2019-04-07T13:14:24.895Z,22.82
2019-04-07T13:17:05.661Z,22.85
2019-04-07T13:20:06.216Z,23.83
2019-04-07T13:22:42.151Z,22.85
2019-04-07T13:25:31.287Z,21.57
2019-04-07T13:28:06.550Z,21.60
2019-04-07T13:30:54.843Z,22.00
2019-04-07T13:33:48.694Z,24.02
2019-04-07T13:36:25.281Z,21.75
2019-04-07T13:39:12.106Z,23.00
2019-04-07T13:41:59.030Z,22.52
2019-04-07T13:44:38.756Z,22.27
2019-04-07T13:47:15.810Z,23.52
2019-04-07T13:49:59.799Z,22.58
2019-04-07T13:52:53.985Z,24.02
2019-04-07T13:58:36.880Z,22.85
2019-04-07T14:01:34.689Z,24.18
2019-04-07T14:04:13.004Z,22.62
2019-04-07T14:06:53.376Z,23.05
2019-04-07T14:09:32.781Z,22.98
2019-04-07T14:12:32.363Z,23.07
2019-04-07T14:15:37.094Z,24.52
2019-04-07T14:18:15.564Z,21.75
2019-04-07T14:21:00.810Z,23.67
2019-04-07T14:23:44.676Z,25.25
2019-04-07T14:26:23.368Z,24.00
2019-04-07T14:29:05.353Z,24.52
2019-04-07T14:31:43.261Z,22.17
2019-04-07T14:34:31.596Z,22.62
2019-04-07T14:37:09.766Z,25.05
2019-04-07T14:40:00.993Z,22.77
2019-04-07T14:42:39.564Z,23.80
2019-04-07T14:45:19.994Z,24.75
2019-04-07T14:48:23.585Z,21.33
2019-04-07T14:51:26.532Z,24.95
2019-04-07T14:54:04.313Z,26.23
2019-04-07T14:56:52.026Z,25.35
2019-04-07T14:59:42.741Z,26.37
2019-04-07T15:02:12.723Z,24.82
2019-04-07T15:05:04.575Z,25.57
2019-04-07T15:07:41.994Z,24.87
2019-04-07T15:10:16.858Z,25.40
2019-04-07T15:12:56.950Z,23.35
2019-04-07T15:15:26.837Z,21.55
2019-04-07T15:17:55.957Z,23.30
2019-04-07T15:20:25.079Z,21.77
2019-04-07T15:22:53.971Z,23.42
2019-04-07T15:25:24.513Z,24.92
2019-04-07T15:27:56.483Z,23.98
2019-04-07T15:30:24.275Z,26.23
2019-04-07T15:32:53.080Z,25.27
2019-04-07T15:35:21.746Z,25.75
2019-04-07T15:37:51.969Z,24.32
2019-04-07T15:40:21.493Z,27.45
2019-04-07T15:42:51.166Z,25.60
2019-04-07T15:45:20.546Z,26.07
2019-04-07T15:47:52.952Z,24.87
2019-04-07T15:50:21.417Z,30.20
2019-04-07T15:52:50.853Z,29.45
2019-04-07T15:55:19.552Z,29.55
2019-04-07T15:57:49.181Z,29.15
2019-04-07T16:00:19.600Z,29.77
2019-04-07T16:02:50.203Z,28.83
2019-04-07T16:05:18.791Z,29.52
2019-04-07T16:07:48.116Z,29.92
2019-04-07T16:10:21.312Z,29.50
2019-04-07T16:12:51.131Z,30.23
2019-04-07T16:15:18.515Z,30.10
2019-04-07T16:17:49.035Z,31.45
2019-04-07T16:20:24.467Z,30.70
2019-04-07T16:22:51.406Z,32.17
2019-04-07T16:25:20.635Z,31.42
2019-04-07T16:27:51.028Z,30.20
2019-04-07T16:30:20.439Z,30.35
2019-04-07T16:32:49.170Z,30.48
2019-04-07T16:35:18.264Z,31.00
2019-04-07T16:37:47.858Z,32.15
2019-04-07T16:40:17.239Z,29.85
2019-04-07T16:43:02.589Z,28.90
2019-04-07T16:45:17.964Z,29.70
2019-04-07T16:47:47.726Z,30.32
2019-04-07T16:50:18.853Z,30.40
2019-04-07T16:52:47.196Z,29.35
2019-04-07T16:55:40.381Z,29.42
2019-04-07T16:58:11.649Z,31.68
2019-04-07T17:00:40.651Z,33.70
2019-04-07T17:03:10.104Z,33.40
2019-04-07T17:05:39.798Z,33.60
2019-04-07T17:08:08.792Z,34.23
2019-04-07T17:10:37.549Z,34.27
2019-04-07T17:13:17.784Z,35.38
2019-04-07T17:15:39.502Z,35.73
2019-04-07T17:18:10.583Z,37.88
2019-04-07T17:20:39.329Z,36.20
2019-04-07T17:23:08.181Z,41.08
2019-04-07T17:25:37.593Z,37.70
2019-04-07T17:28:06.533Z,39.85
2019-04-07T17:30:38.017Z,39.60
2019-04-07T17:33:06.563Z,39.18
2019-04-07T17:35:35.821Z,40.17
2019-04-07T17:38:06.949Z,39.23
2019-04-07T17:40:43.679Z,39.67
2019-04-07T17:43:40.574Z,41.45
2019-04-07T17:46:11.188Z,39.90
2019-04-07T17:48:55.304Z,40.33
2019-04-07T17:51:38.274Z,40.88
2019-04-07T17:54:32.865Z,40.55
2019-04-07T17:57:20.613Z,44.70
2019-04-07T17:59:58.308Z,39.48
2019-04-07T18:02:36.304Z,52.05
2019-04-07T18:05:26.828Z,41.20
2019-04-07T18:08:14.789Z,42.58
2019-04-07T18:11:00.098Z,41.48
2019-04-07T18:13:50.941Z,48.73
2019-04-07T18:16:28.662Z,44.53
2019-04-07T18:19:31.447Z,44.35
2019-04-07T18:22:20.450Z,43.98
2019-04-07T18:25:06.969Z,45.20
2019-04-07T18:27:58.874Z,44.00
2019-04-07T18:30:49.508Z,46.68
2019-04-07T18:33:42.364Z,45.52
2019-04-07T18:36:20.696Z,46.33
2019-04-07T18:39:03.379Z,47.15
2019-04-07T18:41:41.530Z,47.50
2019-04-07T18:44:40.995Z,46.80
2019-04-07T18:47:22.717Z,47.15
2019-04-07T18:50:20.725Z,47.10
2019-04-07T18:53:07.234Z,51.90
2019-04-07T18:55:53.774Z,54.50
2019-04-07T18:58:47.527Z,57.08
2019-04-07T19:01:24.374Z,52.35
2019-04-07T19:04:00.833Z,55.08
2019-04-07T19:07:00.650Z,55.33
2019-04-07T19:10:03.754Z,58.83
2019-04-07T19:12:43.104Z,56.60
2019-04-07T19:15:23.716Z,54.45
2019-04-07T19:18:11.878Z,55.83
2019-04-07T19:21:11.068Z,55.12
2019-04-07T19:23:50.874Z,50.12
2019-04-07T19:26:49.802Z,51.53
2019-04-07T19:29:42.931Z,57.85
2019-04-07T19:32:17.977Z,60.73
2019-04-07T19:34:53.086Z,59.70
2019-04-07T19:37:29.152Z,57.55
2019-04-07T19:40:15.623Z,57.03
2019-04-07T19:42:50.842Z,58.33
2019-04-07T19:45:33.002Z,62.20
2019-04-07T19:48:15.879Z,58.00
2019-04-07T19:51:15.654Z,62.58
2019-04-07T19:53:53.538Z,59.98
2019-04-07T19:56:31.423Z,56.88
2019-04-07T19:59:22.202Z,57.95
2019-04-07T20:02:10.024Z,60.83
2019-04-07T20:04:57.569Z,60.65
2019-04-07T20:07:46.178Z,62.67
2019-04-07T20:10:34.098Z,69.87
2019-04-07T20:13:14.021Z,60.43
2019-04-07T20:16:00.604Z,60.35
2019-04-07T20:18:45.915Z,62.05
2019-04-07T20:21:39.256Z,62.98
2019-04-07T20:24:11.328Z,62.93
2019-04-07T20:26:54.544Z,71.15
2019-04-07T20:29:43.489Z,67.72
2019-04-07T20:32:37.485Z,65.05
2019-04-07T20:35:19.059Z,58.60
2019-04-07T20:38:03.359Z,70.35
2019-04-07T20:40:42.973Z,63.60
2019-04-07T20:43:25.229Z,65.25
2019-04-07T20:46:07.099Z,76.57
2019-04-07T20:48:45.700Z,67.45
2019-04-07T20:51:27.744Z,69.35
2019-04-07T20:54:07.597Z,63.65
2019-04-07T20:56:50.506Z,60.20
2019-04-07T20:59:27.069Z,66.77
2019-04-07T21:02:07.511Z,68.78
2019-04-07T21:05:02.465Z,67.17
2019-04-07T21:07:51.298Z,66.75
2019-04-07T21:10:41.878Z,77.00
2019-04-07T21:13:23.653Z,71.00
2019-04-07T21:16:10.242Z,74.72
2019-04-07T21:18:44.957Z,70.25
2019-04-07T21:21:34.387Z,72.05
2019-04-07T21:24:37.597Z,71.70
2019-04-07T21:27:14.299Z,74.62
2019-04-07T21:29:54.710Z,70.42
2019-04-07T21:32:31.279Z,80.47
2019-04-07T21:35:10.842Z,74.67
2019-04-07T21:37:56.522Z,80.22
2019-04-07T21:40:41.195Z,78.07
2019-04-07T21:43:18.560Z,77.62
2019-04-07T21:46:24.901Z,77.95
2019-04-07T21:49:09.707Z,88.70
2019-04-07T21:51:46.588Z,84.90
2019-04-07T21:54:39.083Z,81.15
2019-04-07T21:57:27.264Z,83.00
2019-04-07T22:00:03.002Z,78.42
2019-04-07T22:02:50.307Z,80.42
2019-04-07T22:05:31.434Z,79.75
2019-04-07T22:08:22.249Z,75.80
2019-04-07T22:10:52.261Z,79.53
2019-04-07T22:13:21.678Z,82.12
2019-04-07T22:15:57.079Z,73.10
2019-04-07T22:18:21.595Z,79.22
2019-04-07T22:20:54.188Z,82.17
2019-04-07T22:23:21.571Z,76.70
2019-04-07T22:25:54.300Z,82.22
2019-04-07T22:28:27.721Z,87.35
2019-04-07T22:30:55.231Z,90.97
2019-04-07T22:33:25.677Z,79.97
2019-04-07T22:35:54.472Z,81.32
2019-04-07T22:38:23.808Z,84.55
2019-04-07T22:40:52.762Z,81.10
2019-04-07T22:43:21.414Z,92.15
2019-04-07T22:45:59.392Z,85.97
2019-04-07T22:48:22.813Z,83.12
2019-04-07T22:50:51.816Z,89.30
2019-04-07T22:53:22.568Z,86.30
2019-04-07T22:55:50.906Z,84.50
2019-04-07T22:58:20.124Z,89.35
2019-04-07T23:00:50.485Z,104.10
2019-04-07T23:03:19.727Z,90.55
2019-04-07T23:05:49.153Z,86.60
2019-04-07T23:08:18.758Z,82.65
2019-04-07T23:10:47.886Z,90.90
2019-04-07T23:13:16.752Z,85.75
2019-04-07T23:15:47.038Z,93.25
2019-04-07T23:18:16.036Z,97.72
2019-04-07T23:20:44.705Z,93.52
2019-04-07T23:23:14.418Z,93.45
2019-04-07T23:25:44.043Z,95.32
2019-04-07T23:28:12.899Z,95.85
2019-04-07T23:30:41.573Z,96.65
2019-04-07T23:33:10.496Z,94.52
2019-04-07T23:35:39.344Z,102.78
2019-04-07T23:38:08.046Z,98.67
2019-04-07T23:40:37.699Z,93.65
2019-04-07T23:43:06.463Z,94.55
2019-04-07T23:45:35.748Z,92.80
2019-04-07T23:48:04.608Z,99.47
2019-04-07T23:50:33.600Z,97.65
2019-04-07T23:53:39.289Z,95.87
2019-04-07T23:56:07.975Z,92.78
2019-04-07T23:58:36.635Z,91.17
